Time;durP1;ratioP1;P1;durP2;ratioP2;P2;SDS_P1;SDS_P2;PMS_P1;PMS_P2;Temp;Humidity;BMP_temperature;BMP_pressure;BME280_temperature;BME280_humidity;BME280_pressure;Samples;Min_cycle;Max_cycle;Signal;HPM_P1;HPM_P2
2024/01/25 00:01:34;;;;;;;;;;;17.20;46.50;;;;;;1587633;74;1073;-75
2024/01/25 00:03:36;;;;;;;;;;;17.20;46.60;;;;;;1572008;74;711;-76
2024/01/25 00:05:38;;;;;;;;;;;17.20;46.50;;;;;;1572987;74;677;-74
2024/01/25 00:07:46;;;;;;;;;;;17.20;46.60;;;;;;1559945;74;744;-77
2024/01/25 00:09:48;;;;;;;;;;;17.30;46.70;;;;;;1567376;73;1147;-77
2024/01/25 00:11:50;;;;;;;;;;;17.20;46.50;;;;;;1585029;74;708;-75
2024/01/25 00:13:52;;;;;;;;;;;17.30;46.70;;;;;;1583194;74;715;-76
2024/01/25 00:15:54;;;;;;;;;;;17.20;46.50;;;;;;1576928;74;686;-77
2024/01/25 00:17:56;;;;;;;;;;;17.20;46.50;;;;;;1587774;74;747;-77
2024/01/25 00:19:58;;;;;;;;;;;17.20;46.50;;;;;;1576578;74;1927;-75
2024/01/25 00:22:00;;;;;;;;;;;17.20;46.50;;;;;;1563287;74;681;-77
2024/01/25 00:24:02;;;;;;;;;;;17.30;46.60;;;;;;1565877;74;573;-77
2024/01/25 00:26:04;;;;;;;;;;;17.20;46.50;;;;;;1556352;74;748;-78
2024/01/25 00:28:06;;;;;;;;;;;17.20;46.50;;;;;;1574119;74;1086;-76
2024/01/25 00:30:08;;;;;;;;;;;17.20;46.50;;;;;;1574559;74;674;-76
2024/01/25 00:32:10;;;;;;;;;;;17.20;46.50;;;;;;1586509;74;688;-73
2024/01/25 00:34:12;;;;;;;;;;;17.20;46.50;;;;;;1576486;74;1304;-76
2024/01/25 00:36:14;;;;;;;;;;;17.20;46.50;;;;;;1568630;74;768;-76
2024/01/25 00:38:16;;;;;;;;;;;17.20;46.50;;;;;;1568763;74;1144;-73
2024/01/25 00:40:18;;;;;;;;;;;17.20;46.50;;;;;;1570248;74;1943;-77
2024/01/25 00:42:21;;;;;;;;;;;17.20;46.50;;;;;;1562327;74;716;-74
2024/01/25 00:44:23;;;;;;;;;;;17.20;46.40;;;;;;1574673;74;789;-75
2024/01/25 00:46:25;;;;;;;;;;;17.20;46.50;;;;;;1568874;74;745;-75
2024/01/25 00:48:27;;;;;;;;;;;17.20;46.50;;;;;;1570370;74;1130;-72
2024/01/25 00:50:29;;;;;;;;;;;17.10;46.50;;;;;;1562732;74;719;-76
2024/01/25 00:52:31;;;;;;;;;;;17.20;46.40;;;;;;1561514;74;707;-77
2024/01/25 00:54:33;;;;;;;;;;;17.20;46.40;;;;;;1565353;73;781;-77
2024/01/25 00:56:35;;;;;;;;;;;17.20;46.40;;;;;;1590354;74;669;-77
2024/01/25 00:58:37;;;;;;;;;;;17.20;46.40;;;;;;1565524;74;1227;-76
2024/01/25 01:00:39;;;;;;;;;;;17.20;46.40;;;;;;1575262;74;1938;-76
2024/01/25 01:02:43;;;;;;;;;;;17.20;46.40;;;;;;1577775;74;1083;-77
2024/01/25 01:04:44;;;;;;;;;;;17.20;46.40;;;;;;1580795;74;926;-76
2024/01/25 01:06:47;;;;;;;;;;;17.20;46.50;;;;;;1589931;74;803;-76
2024/01/25 01:08:49;;;;;;;;;;;17.20;46.50;;;;;;1571377;74;1178;-70
2024/01/25 01:10:51;;;;;;;;;;;17.20;46.50;;;;;;1581212;74;717;-77
2024/01/25 01:12:54;;;;;;;;;;;17.20;46.40;;;;;;1589031;74;1217;-77
2024/01/25 01:14:56;;;;;;;;;;;17.20;46.40;;;;;;1586377;74;776;-76
2024/01/25 01:16:57;;;;;;;;;;;17.20;46.40;;;;;;1585286;74;738;-75
2024/01/25 01:19:06;;;;;;;;;;;17.20;46.40;;;;;;1587551;74;1140;-76
2024/01/25 01:21:06;;;;;;;;;;;17.20;46.40;;;;;;1575232;74;1926;-77
2024/01/25 01:23:07;;;;;;;;;;;17.20;46.40;;;;;;1573870;74;710;-75
2024/01/25 01:25:10;;;;;;;;;;;17.20;46.40;;;;;;1582659;74;781;-74
2024/01/25 01:27:12;;;;;;;;;;;17.20;46.40;;;;;;1584367;74;781;-74
2024/01/25 01:29:14;;;;;;;;;;;17.20;46.40;;;;;;1575873;74;1092;-77
2024/01/25 01:31:15;;;;;;;;;;;17.20;46.30;;;;;;1575586;74;1460;-77
2024/01/25 01:33:17;;;;;;;;;;;17.20;46.30;;;;;;1580281;73;687;-72
2024/01/25 01:35:19;;;;;;;;;;;17.20;46.40;;;;;;1576366;74;716;-77
2024/01/25 01:37:21;;;;;;;;;;;17.20;46.40;;;;;;1572232;74;716;-77
2024/01/25 01:39:23;;;;;;;;;;;17.20;46.30;;;;;;1588137;74;1128;-76
2024/01/25 01:41:25;;;;;;;;;;;17.20;46.30;;;;;;1579692;74;1945;-76
2024/01/25 01:43:27;;;;;;;;;;;17.20;46.40;;;;;;1577021;74;636;-74
2024/01/25 01:45:29;;;;;;;;;;;17.10;46.30;;;;;;1584936;74;777;-77
2024/01/25 01:47:30;;;;;;;;;;;17.20;46.30;;;;;;1572189;74;717;-76
2024/01/25 01:49:32;;;;;;;;;;;17.20;46.30;;;;;;1581222;74;1141;-76
2024/01/25 01:51:35;;;;;;;;;;;17.20;46.30;;;;;;1591212;74;766;-77
2024/01/25 01:53:36;;;;;;;;;;;17.20;46.30;;;;;;1584498;74;693;-77
2024/01/25 01:55:38;;;;;;;;;;;17.20;46.30;;;;;;1578907;74;818;-76
2024/01/25 01:57:40;;;;;;;;;;;17.20;46.30;;;;;;1571565;74;744;-77
2024/01/25 01:59:42;;;;;;;;;;;17.20;46.30;;;;;;1580446;74;1143;-78
2024/01/25 02:01:44;;;;;;;;;;;17.20;46.30;;;;;;1583893;74;1937;-77
2024/01/25 02:03:46;;;;;;;;;;;17.20;46.30;;;;;;1578569;74;1026;-75
2024/01/25 02:05:48;;;;;;;;;;;17.20;46.30;;;;;;1559097;74;754;-76
2024/01/25 02:07:50;;;;;;;;;;;17.10;46.30;;;;;;1572313;74;630;-76
2024/01/25 02:09:52;;;;;;;;;;;17.20;46.30;;;;;;1569416;74;1145;-75
2024/01/25 02:12:01;;;;;;;;;;;17.20;46.30;;;;;;1573145;74;740;-78
2024/01/25 02:14:03;;;;;;;;;;;17.20;46.30;;;;;;1563829;74;772;-77
2024/01/25 02:16:05;;;;;;;;;;;17.20;46.20;;;;;;1571679;75;714;-77
2024/01/25 02:18:07;;;;;;;;;;;17.20;46.20;;;;;;1568643;73;1141;-77
2024/01/25 02:20:09;;;;;;;;;;;17.20;46.30;;;;;;1567896;74;1917;-77
2024/01/25 02:22:11;;;;;;;;;;;17.20;46.20;;;;;;1554440;74;726;-77
2024/01/25 02:24:13;;;;;;;;;;;17.20;46.20;;;;;;1567430;74;592;-77
2024/01/25 02:26:15;;;;;;;;;;;17.20;46.20;;;;;;1577431;74;591;-77
2024/01/25 02:28:16;;;;;;;;;;;17.20;46.20;;;;;;1568549;74;1641;-77
2024/01/25 02:30:18;;;;;;;;;;;17.20;46.30;;;;;;1563248;74;728;-77
2024/01/25 02:32:21;;;;;;;;;;;17.20;46.20;;;;;;1565154;75;715;-73
2024/01/25 02:34:23;;;;;;;;;;;17.20;46.20;;;;;;1571894;74;699;-71
2024/01/25 02:36:25;;;;;;;;;;;17.20;46.20;;;;;;1579369;74;708;-71
2024/01/25 02:38:27;;;;;;;;;;;17.20;46.30;;;;;;1563818;74;1156;-77
2024/01/25 02:40:29;;;;;;;;;;;17.20;46.30;;;;;;1566273;74;1942;-77
2024/01/25 02:42:31;;;;;;;;;;;17.20;46.30;;;;;;1582965;74;738;-76
2024/01/25 02:44:33;;;;;;;;;;;17.20;46.20;;;;;;1585641;74;711;-76
2024/01/25 02:46:34;;;;;;;;;;;17.20;46.20;;;;;;1578763;74;713;-74
2024/01/25 02:48:36;;;;;;;;;;;17.20;46.20;;;;;;1557340;74;1157;-76
2024/01/25 02:50:38;;;;;;;;;;;17.20;46.20;;;;;;1558554;74;718;-77
2024/01/25 02:52:40;;;;;;;;;;;17.20;46.20;;;;;;1563238;74;790;-77
2024/01/25 02:54:42;;;;;;;;;;;17.20;46.20;;;;;;1554408;74;725;-77
2024/01/25 02:56:44;;;;;;;;;;;17.20;46.20;;;;;;1580395;74;787;-76
2024/01/25 02:58:46;;;;;;;;;;;17.20;46.20;;;;;;1567766;74;1191;-76
2024/01/25 03:00:48;;;;;;;;;;;17.20;46.20;;;;;;1556806;74;1921;-76
2024/01/25 03:02:50;;;;;;;;;;;17.20;46.20;;;;;;1567077;74;763;-74
2024/01/25 03:04:52;;;;;;;;;;;17.20;46.30;;;;;;1560190;74;609;-75
2024/01/25 03:06:54;;;;;;;;;;;17.20;46.30;;;;;;1554970;74;695;-73
2024/01/25 03:08:55;;;;;;;;;;;17.20;46.30;;;;;;1558968;74;1167;-70
2024/01/25 03:10:57;;;;;;;;;;;17.20;46.20;;;;;;1559936;75;785;-75
2024/01/25 03:12:59;;;;;;;;;;;17.20;46.20;;;;;;1552727;74;761;-77
2024/01/25 03:15:01;;;;;;;;;;;17.20;46.20;;;;;;1561688;74;779;-77
2024/01/25 03:17:03;;;;;;;;;;;17.20;46.20;;;;;;1552072;74;681;-77
2024/01/25 03:19:05;;;;;;;;;;;17.20;46.20;;;;;;1556710;74;1196;-74
2024/01/25 03:21:07;;;;;;;;;;;17.20;46.20;;;;;;1552978;74;1954;-77
2024/01/25 03:23:09;;;;;;;;;;;17.20;46.20;;;;;;1557761;74;1531;-77
2024/01/25 03:25:11;;;;;;;;;;;17.20;46.20;;;;;;1565121;75;591;-76
2024/01/25 03:27:14;;;;;;;;;;;17.20;46.20;;;;;;1557161;74;712;-76
2024/01/25 03:29:16;;;;;;;;;;;17.20;46.20;;;;;;1550895;75;1134;-73
2024/01/25 03:31:17;;;;;;;;;;;17.20;46.30;;;;;;1562399;74;780;-74
2024/01/25 03:33:19;;;;;;;;;;;17.20;46.20;;;;;;1567497;74;726;-75
2024/01/25 03:35:21;;;;;;;;;;;17.20;46.20;;;;;;1553438;74;771;-72
2024/01/25 03:37:23;;;;;;;;;;;17.20;46.20;;;;;;1542679;74;802;-73
2024/01/25 03:39:25;;;;;;;;;;;17.20;46.20;;;;;;1556494;74;1117;-76
2024/01/25 03:41:29;;;;;;;;;;;17.20;46.20;;;;;;1561776;74;1930;-73
2024/01/25 03:43:30;;;;;;;;;;;17.20;46.20;;;;;;1559306;75;691;-77
2024/01/25 03:45:35;;;;;;;;;;;17.20;46.20;;;;;;1559678;74;798;-77
2024/01/25 03:47:37;;;;;;;;;;;17.20;46.20;;;;;;1558916;74;715;-75
2024/01/25 03:49:39;;;;;;;;;;;17.20;46.20;;;;;;1548553;74;1119;-77
2024/01/25 03:51:41;;;;;;;;;;;17.20;46.20;;;;;;1555991;74;711;-77
2024/01/25 03:53:43;;;;;;;;;;;17.20;46.10;;;;;;1550956;74;838;-75
2024/01/25 03:55:45;;;;;;;;;;;17.20;46.10;;;;;;1557936;74;726;-74
2024/01/25 03:57:47;;;;;;;;;;;17.20;46.10;;;;;;1549174;75;699;-77
2024/01/25 03:59:48;;;;;;;;;;;17.20;46.10;;;;;;1558340;75;1148;-76
2024/01/25 04:01:50;;;;;;;;;;;17.20;46.20;;;;;;1570654;75;1935;-77
2024/01/25 04:03:52;;;;;;;;;;;17.20;46.10;;;;;;1562336;74;1062;-76
2024/01/25 04:05:54;;;;;;;;;;;17.20;46.20;;;;;;1562605;74;628;-77
2024/01/25 04:07:56;;;;;;;;;;;17.20;46.20;;;;;;1563542;74;704;-77
2024/01/25 04:09:58;;;;;;;;;;;17.20;46.10;;;;;;1566485;74;1136;-77
2024/01/25 04:12:00;;;;;;;;;;;17.20;46.10;;;;;;1568238;74;733;-75
2024/01/25 04:14:01;;;;;;;;;;;17.20;46.10;;;;;;1563999;74;673;-74
2024/01/25 04:16:04;;;;;;;;;;;17.20;46.10;;;;;;1563198;74;728;-76
2024/01/25 04:18:05;;;;;;;;;;;17.20;46.10;;;;;;1559748;74;1161;-76
2024/01/25 04:20:08;;;;;;;;;;;17.20;46.10;;;;;;1561894;74;1553;-76
2024/01/25 04:22:10;;;;;;;;;;;17.20;46.10;;;;;;1566874;74;1928;-77
2024/01/25 04:24:12;;;;;;;;;;;17.20;46.20;;;;;;1563450;74;700;-76
2024/01/25 04:26:15;;;;;;;;;;;17.20;46.10;;;;;;1558446;74;734;-77
2024/01/25 04:28:17;;;;;;;;;;;17.20;46.10;;;;;;1558350;74;1130;-74
2024/01/25 04:30:19;;;;;;;;;;;17.20;46.10;;;;;;1558079;74;750;-76
2024/01/25 04:32:21;;;;;;;;;;;17.20;46.10;;;;;;1567672;74;775;-76
2024/01/25 04:34:22;;;;;;;;;;;17.20;46.00;;;;;;1569272;74;670;-75
2024/01/25 04:36:24;;;;;;;;;;;17.20;46.10;;;;;;1587741;74;959;-77
2024/01/25 04:38:26;;;;;;;;;;;17.20;46.10;;;;;;1566993;74;1131;-75
2024/01/25 04:40:28;;;;;;;;;;;17.20;46.10;;;;;;1556960;74;710;-76
2024/01/25 04:42:30;;;;;;;;;;;17.20;46.10;;;;;;1571465;74;1944;-73
2024/01/25 04:44:32;;;;;;;;;;;17.20;46.00;;;;;;1555353;74;676;-75
2024/01/25 04:46:36;;;;;;;;;;;17.20;46.00;;;;;;1569354;73;667;-76
2024/01/25 04:48:37;;;;;;;;;;;17.20;46.00;;;;;;1565365;74;1160;-77
2024/01/25 04:50:39;;;;;;;;;;;17.20;46.00;;;;;;1586132;74;675;-71
2024/01/25 04:52:41;;;;;;;;;;;17.20;46.00;;;;;;1565074;74;776;-70
2024/01/25 04:54:43;;;;;;;;;;;17.20;46.10;;;;;;1560002;74;710;-77
2024/01/25 04:56:45;;;;;;;;;;;17.20;46.00;;;;;;1564756;74;794;-76
2024/01/25 04:58:47;;;;;;;;;;;17.20;46.10;;;;;;1565707;74;1124;-76
2024/01/25 05:00:50;;;;;;;;;;;17.20;46.10;;;;;;1558091;74;866;-76
2024/01/25 05:02:52;;;;;;;;;;;17.20;46.00;;;;;;1558898;74;1932;-76
2024/01/25 05:04:54;;;;;;;;;;;17.20;46.00;;;;;;1575638;74;1126;-76
2024/01/25 05:06:56;;;;;;;;;;;17.20;46.00;;;;;;1577597;74;753;-75
2024/01/25 05:08:57;;;;;;;;;;;17.20;46.00;;;;;;1581595;74;1179;-76
2024/01/25 05:10:59;;;;;;;;;;;17.20;46.00;;;;;;1579015;74;670;-75
2024/01/25 05:13:01;;;;;;;;;;;17.20;46.00;;;;;;1579613;74;773;-74
2024/01/25 05:15:03;;;;;;;;;;;17.20;46.00;;;;;;1584587;74;689;-76
2024/01/25 05:17:05;;;;;;;;;;;17.20;46.00;;;;;;1574544;74;1299;-76
2024/01/25 05:19:07;;;;;;;;;;;17.20;46.00;;;;;;1582908;74;1153;-71
2024/01/25 05:21:09;;;;;;;;;;;17.20;46.00;;;;;;1581599;74;1938;-76
2024/01/25 05:23:11;;;;;;;;;;;17.20;46.00;;;;;;1580076;74;805;-74
2024/01/25 05:25:13;;;;;;;;;;;17.20;46.00;;;;;;1572481;74;741;-77
2024/01/25 05:27:15;;;;;;;;;;;17.20;46.00;;;;;;1578965;73;666;-76
2024/01/25 05:29:17;;;;;;;;;;;17.20;46.00;;;;;;1574791;74;1140;-74
2024/01/25 05:31:19;;;;;;;;;;;17.20;46.00;;;;;;1570224;74;717;-75
2024/01/25 05:33:21;;;;;;;;;;;17.20;46.00;;;;;;1588612;74;783;-77
2024/01/25 05:35:27;;;;;;;;;;;17.20;46.00;;;;;;1583949;74;718;-77
2024/01/25 05:37:26;;;;;;;;;;;17.20;46.00;;;;;;1591288;74;942;-74
2024/01/25 05:39:28;;;;;;;;;;;17.20;46.00;;;;;;1583733;74;1094;-76
2024/01/25 05:41:30;;;;;;;;;;;17.20;46.00;;;;;;1582843;74;1914;-76
2024/01/25 05:43:32;;;;;;;;;;;17.20;46.00;;;;;;1577512;74;600;-74
2024/01/25 05:45:34;;;;;;;;;;;17.20;46.00;;;;;;1579241;74;755;-76
2024/01/25 05:47:36;;;;;;;;;;;17.20;46.00;;;;;;1590168;74;677;-77
2024/01/25 05:49:38;;;;;;;;;;;17.20;46.00;;;;;;1577787;74;1085;-73
2024/01/25 05:51:40;;;;;;;;;;;17.20;46.00;;;;;;1573530;74;792;-76
2024/01/25 05:53:42;;;;;;;;;;;17.20;46.00;;;;;;1582154;74;750;-74
2024/01/25 05:55:44;;;;;;;;;;;17.20;46.00;;;;;;1588424;74;736;-76
2024/01/25 05:57:45;;;;;;;;;;;17.20;46.00;;;;;;1580220;74;782;-75
2024/01/25 05:59:47;;;;;;;;;;;17.30;46.10;;;;;;1576186;74;1094;-76
2024/01/25 06:01:49;;;;;;;;;;;17.20;46.00;;;;;;1578672;74;1935;-77
2024/01/25 06:03:51;;;;;;;;;;;17.20;46.00;;;;;;1577555;74;735;-77
2024/01/25 06:05:53;;;;;;;;;;;17.20;46.00;;;;;;1574965;74;950;-77
2024/01/25 06:07:55;;;;;;;;;;;17.20;46.00;;;;;;1572862;74;1435;-77
2024/01/25 06:09:57;;;;;;;;;;;17.20;46.00;;;;;;1576959;74;1121;-76
2024/01/25 06:11:59;;;;;;;;;;;17.20;46.00;;;;;;1578988;74;1561;-78
2024/01/25 06:14:00;;;;;;;;;;;17.30;46.10;;;;;;1572311;74;818;-77
2024/01/25 06:16:02;;;;;;;;;;;17.10;46.00;;;;;;1582210;74;770;-76
2024/01/25 06:18:04;;;;;;;;;;;17.20;46.00;;;;;;1586888;74;1132;-78
2024/01/25 06:20:06;;;;;;;;;;;17.20;46.00;;;;;;1586482;74;720;-76
2024/01/25 06:22:08;;;;;;;;;;;17.20;46.00;;;;;;1583589;74;1946;-74
2024/01/25 06:24:10;;;;;;;;;;;17.20;46.00;;;;;;1583820;74;708;-75
2024/01/25 06:26:12;;;;;;;;;;;17.20;46.00;;;;;;1576517;74;745;-73
2024/01/25 06:28:14;;;;;;;;;;;17.20;46.00;;;;;;1572327;73;1153;-72
2024/01/25 06:30:16;;;;;;;;;;;17.20;46.00;;;;;;1582186;74;740;-77
2024/01/25 06:32:17;;;;;;;;;;;17.30;46.10;;;;;;1580926;74;782;-75
2024/01/25 06:34:19;;;;;;;;;;;17.20;46.00;;;;;;1576535;74;732;-75
2024/01/25 06:36:21;;;;;;;;;;;17.20;46.00;;;;;;1573519;74;713;-77
2024/01/25 06:38:23;;;;;;;;;;;17.20;46.00;;;;;;1580440;74;1144;-77
2024/01/25 06:40:25;;;;;;;;;;;17.20;46.00;;;;;;1578471;74;746;-77
2024/01/25 06:42:27;;;;;;;;;;;17.20;46.00;;;;;;1581666;74;1926;-77
2024/01/25 06:44:29;;;;;;;;;;;17.20;46.00;;;;;;1578669;74;723;-77
2024/01/25 06:46:30;;;;;;;;;;;17.30;46.10;;;;;;1573986;74;830;-75
2024/01/25 06:48:32;;;;;;;;;;;17.20;46.00;;;;;;1573582;74;1120;-77
2024/01/25 06:50:35;;;;;;;;;;;17.20;46.00;;;;;;1580009;74;661;-75
2024/01/25 06:52:36;;;;;;;;;;;17.20;46.00;;;;;;1576777;74;669;-77
2024/01/25 06:54:38;;;;;;;;;;;17.20;46.00;;;;;;1590571;74;845;-76
2024/01/25 06:56:40;;;;;;;;;;;17.20;46.00;;;;;;1574180;74;650;-76
2024/01/25 06:58:42;;;;;;;;;;;17.20;46.00;;;;;;1577548;74;1107;-73
2024/01/25 07:00:46;;;;;;;;;;;17.20;46.00;;;;;;1592304;74;635;-77
2024/01/25 07:02:47;;;;;;;;;;;17.20;46.00;;;;;;1579996;74;1937;-76
2024/01/25 07:04:52;;;;;;;;;;;17.30;46.10;;;;;;1579021;74;790;-77
2024/01/25 07:06:53;;;;;;;;;;;17.20;46.00;;;;;;1583610;73;1620;-76
2024/01/25 07:08:55;;;;;;;;;;;17.20;46.00;;;;;;1556443;74;1348;-77
2024/01/25 07:10:59;;;;;;;;;;;17.20;46.00;;;;;;1554233;74;651;-77
2024/01/25 07:13:00;;;;;;;;;;;17.20;46.00;;;;;;1567045;74;1624;-78
2024/01/25 07:15:02;;;;;;;;;;;17.30;46.10;;;;;;1574618;74;712;-76
2024/01/25 07:17:04;;;;;;;;;;;17.20;46.00;;;;;;1562922;74;756;-74
2024/01/25 07:19:06;;;;;;;;;;;17.20;46.00;;;;;;1586903;74;1151;-74
2024/01/25 07:21:08;;;;;;;;;;;17.20;46.00;;;;;;1565965;74;684;-73
2024/01/25 07:23:10;;;;;;;;;;;17.20;45.90;;;;;;1558554;74;1927;-73
2024/01/25 07:25:12;;;;;;;;;;;17.20;45.90;;;;;;1561289;73;732;-78
2024/01/25 07:27:14;;;;;;;;;;;17.30;46.10;;;;;;1577476;74;784;-76
2024/01/25 07:29:15;;;;;;;;;;;17.10;45.90;;;;;;1563037;74;1132;-73
2024/01/25 07:31:17;;;;;;;;;;;17.30;46.10;;;;;;1568019;74;668;-71
2024/01/25 07:33:19;;;;;;;;;;;17.20;45.90;;;;;;1578334;74;766;-76
2024/01/25 07:35:23;;;;;;;;;;;17.20;45.90;;;;;;1586809;74;730;-79
2024/01/25 07:37:25;;;;;;;;;;;17.20;45.90;;;;;;1565310;74;768;-78
2024/01/25 07:39:27;;;;;;;;;;;17.20;45.90;;;;;;1555363;74;1126;-75
2024/01/25 07:41:28;;;;;;;;;;;17.20;46.00;;;;;;1564358;74;618;-77
2024/01/25 07:43:30;;;;;;;;;;;17.20;46.00;;;;;;1556430;74;1930;-77
2024/01/25 07:45:32;;;;;;;;;;;17.20;45.90;;;;;;1571483;74;661;-77
2024/01/25 07:47:34;;;;;;;;;;;17.20;45.90;;;;;;1558860;74;689;-74
2024/01/25 07:49:36;;;;;;;;;;;17.20;45.90;;;;;;1564287;74;1084;-77
2024/01/25 07:51:38;;;;;;;;;;;17.20;45.90;;;;;;1556200;74;725;-78
2024/01/25 07:53:40;;;;;;;;;;;17.20;46.00;;;;;;1568230;74;721;-76
2024/01/25 07:55:42;;;;;;;;;;;17.20;45.90;;;;;;1558301;74;804;-76
2024/01/25 07:57:44;;;;;;;;;;;17.20;46.00;;;;;;1562421;74;754;-77
2024/01/25 07:59:46;;;;;;;;;;;17.20;45.90;;;;;;1571959;74;1103;-75
2024/01/25 08:01:48;;;;;;;;;;;17.20;45.90;;;;;;1572686;74;720;-75
2024/01/25 08:03:50;;;;;;;;;;;17.30;46.10;;;;;;1569455;74;1914;-76
2024/01/25 08:05:52;;;;;;;;;;;17.20;45.90;;;;;;1562461;74;1561;-73
2024/01/25 08:07:54;;;;;;;;;;;17.20;45.90;;;;;;1565730;73;1068;-76
2024/01/25 08:09:58;;;;;;;;;;;17.20;45.90;;;;;;1556730;74;1181;-73
2024/01/25 08:11:59;;;;;;;;;;;17.20;46.00;;;;;;1561110;74;741;-77
2024/01/25 08:14:03;;;;;;;;;;;17.20;45.90;;;;;;1555340;74;730;-75
2024/01/25 08:16:05;;;;;;;;;;;17.20;45.90;;;;;;1562310;74;743;-76
2024/01/25 08:18:07;;;;;;;;;;;17.20;45.90;;;;;;1550574;75;1166;-76
2024/01/25 08:20:10;;;;;;;;;;;17.30;46.00;;;;;;1571275;74;753;-76
2024/01/25 08:22:12;;;;;;;;;;;17.20;45.90;;;;;;1575090;74;1911;-76
2024/01/25 08:24:14;;;;;;;;;;;17.20;45.90;;;;;;1568291;74;702;-77
2024/01/25 08:26:35;;;;;;;;;;;17.20;45.90;;;;;;1559694;73;740;-73
2024/01/25 08:28:38;;;;;;;;;;;17.20;45.90;;;;;;1536897;76;1197;-76
2024/01/25 08:30:40;;;;;;;;;;;17.20;45.90;;;;;;1560785;75;608;-76
2024/01/25 08:32:42;;;;;;;;;;;17.20;45.90;;;;;;1562118;75;708;-74
2024/01/25 08:34:44;;;;;;;;;;;17.20;45.90;;;;;;1564919;75;681;-75
2024/01/25 08:36:46;;;;;;;;;;;17.20;45.90;;;;;;1562136;75;725;-76
2024/01/25 08:38:48;;;;;;;;;;;17.20;45.90;;;;;;1559643;75;1142;-78
2024/01/25 08:40:50;;;;;;;;;;;17.20;46.00;;;;;;1568922;75;734;-77
2024/01/25 08:42:52;;;;;;;;;;;17.20;46.00;;;;;;1561724;75;1942;-75
2024/01/25 08:44:54;;;;;;;;;;;17.20;46.00;;;;;;1553521;75;680;-77
2024/01/25 08:46:56;;;;;;;;;;;17.20;45.90;;;;;;1565188;75;679;-75
2024/01/25 08:48:57;;;;;;;;;;;17.20;45.90;;;;;;1570454;75;1117;-74
2024/01/25 08:50:59;;;;;;;;;;;17.20;45.90;;;;;;1569262;74;672;-74
2024/01/25 08:53:01;;;;;;;;;;;17.20;45.90;;;;;;1557604;75;675;-76
2024/01/25 08:55:04;;;;;;;;;;;17.20;45.90;;;;;;1559883;75;648;-75
2024/01/25 08:57:06;;;;;;;;;;;17.20;45.90;;;;;;1566002;75;785;-77
2024/01/25 08:59:08;;;;;;;;;;;17.20;45.90;;;;;;1557814;75;1173;-73
2024/01/25 09:01:10;;;;;;;;;;;17.20;46.00;;;;;;1562017;75;1607;-77
2024/01/25 09:03:12;;;;;;;;;;;17.20;46.00;;;;;;1554893;75;1929;-77
2024/01/25 09:05:14;;;;;;;;;;;17.20;45.90;;;;;;1557097;75;702;-74
2024/01/25 09:07:16;;;;;;;;;;;17.20;45.80;;;;;;1555293;75;723;-75
2024/01/25 09:09:18;;;;;;;;;;;17.20;45.80;;;;;;1558710;75;1204;-73
2024/01/25 09:11:20;;;;;;;;;;;17.20;45.90;;;;;;1562970;74;668;-77
2024/01/25 09:13:22;;;;;;;;;;;17.30;46.00;;;;;;1562446;75;758;-73
2024/01/25 09:15:24;;;;;;;;;;;17.20;45.80;;;;;;1570054;75;792;-77
2024/01/25 09:17:25;;;;;;;;;;;17.20;45.90;;;;;;1568699;75;673;-77
2024/01/25 09:19:27;;;;;;;;;;;17.20;45.80;;;;;;1564901;75;1144;-71
2024/01/25 09:21:29;;;;;;;;;;;17.20;45.90;;;;;;1567470;75;656;-76
2024/01/25 09:23:31;;;;;;;;;;;17.30;46.00;;;;;;1562982;75;1934;-76
2024/01/25 09:25:33;;;;;;;;;;;17.20;45.90;;;;;;1563164;75;674;-75
2024/01/25 09:27:36;;;;;;;;;;;17.20;45.90;;;;;;1558900;75;779;-76
2024/01/25 09:29:38;;;;;;;;;;;17.20;45.90;;;;;;1569274;75;1147;-74
2024/01/25 09:31:40;;;;;;;;;;;17.20;45.90;;;;;;1569645;75;815;-76
2024/01/25 09:33:42;;;;;;;;;;;17.20;45.90;;;;;;1550416;75;907;-75
2024/01/25 09:35:46;;;;;;;;;;;17.20;45.90;;;;;;1564868;75;712;-74
2024/01/25 09:37:48;;;;;;;;;;;17.20;45.90;;;;;;1564643;75;900;-75
2024/01/25 09:39:51;;;;;;;;;;;17.10;45.80;;;;;;1559067;74;1161;-75
2024/01/25 09:41:53;;;;;;;;;;;17.20;45.80;;;;;;1551684;75;748;-76
2024/01/25 09:43:55;;;;;;;;;;;17.20;45.80;;;;;;1560927;75;1941;-77
2024/01/25 09:45:56;;;;;;;;;;;17.20;45.80;;;;;;1566373;75;733;-77
2024/01/25 09:47:58;;;;;;;;;;;17.20;45.80;;;;;;1561758;75;787;-74
2024/01/25 09:50:01;;;;;;;;;;;17.20;45.80;;;;;;1564767;75;1248;-74
2024/01/25 09:52:07;;;;;;;;;;;17.30;46.00;;;;;;1553529;75;677;-76
2024/01/25 09:54:06;;;;;;;;;;;17.20;45.80;;;;;;1558110;75;981;-76
2024/01/25 09:56:09;;;;;;;;;;;17.20;45.80;;;;;;1562578;75;727;-76
2024/01/25 09:58:11;;;;;;;;;;;17.30;46.00;;;;;;1557371;75;1549;-73
2024/01/25 10:00:13;;;;;;;;;;;17.30;46.00;;;;;;1568532;75;691;-70
2024/01/25 10:02:15;;;;;;;;;;;17.30;46.00;;;;;;1548368;75;700;-75
2024/01/25 10:04:21;;;;;;;;;;;17.20;45.80;;;;;;1557157;75;1957;-75
2024/01/25 10:06:21;;;;;;;;;;;17.30;46.00;;;;;;1561747;75;1081;-78
2024/01/25 10:08:23;;;;;;;;;;;17.20;45.80;;;;;;1568621;75;1172;-78
2024/01/25 10:10:25;;;;;;;;;;;17.20;45.80;;;;;;1560795;75;659;-77
2024/01/25 10:12:27;;;;;;;;;;;17.20;45.80;;;;;;1561514;75;742;-74
2024/01/25 10:14:29;;;;;;;;;;;17.20;45.80;;;;;;1564074;75;736;-71
2024/01/25 10:16:31;;;;;;;;;;;17.30;46.00;;;;;;1569349;75;714;-74
2024/01/25 10:18:33;;;;;;;;;;;17.20;45.80;;;;;;1566591;74;1141;-76
2024/01/25 10:20:35;;;;;;;;;;;17.30;45.90;;;;;;1560342;75;652;-75
2024/01/25 10:22:37;;;;;;;;;;;17.20;45.80;;;;;;1555068;75;675;-77
2024/01/25 10:24:42;;;;;;;;;;;17.30;45.90;;;;;;1560639;74;1919;-75
2024/01/25 10:26:44;;;;;;;;;;;17.20;45.70;;;;;;1563555;75;773;-78
2024/01/25 10:28:55;;;;;;;;;;;17.20;45.80;;;;;;1550038;75;1174;-72
2024/01/25 10:30:58;;;;;;;;;;;17.20;45.70;;;;;;1564969;75;688;-77
2024/01/25 10:33:00;;;;;;;;;;;17.30;45.80;;;;;;1567442;75;752;-75
2024/01/25 10:35:02;;;;;;;;;;;17.20;45.70;;;;;;1558461;75;694;-77
2024/01/25 10:37:04;;;;;;;;;;;17.20;45.80;;;;;;1568825;75;715;-76
2024/01/25 10:39:07;;;;;;;;;;;17.20;45.70;;;;;;1559269;75;1161;-77
2024/01/25 10:41:09;;;;;;;;;;;17.20;45.70;;;;;;1562156;75;680;-74
2024/01/25 10:43:11;;;;;;;;;;;17.20;45.70;;;;;;1557854;75;1920;-78
2024/01/25 10:45:13;;;;;;;;;;;17.20;45.70;;;;;;1548322;75;732;-74
2024/01/25 10:47:15;;;;;;;;;;;17.20;45.70;;;;;;1564914;75;678;-76
2024/01/25 10:49:17;;;;;;;;;;;17.30;45.70;;;;;;1566083;75;1157;-77
2024/01/25 10:51:19;;;;;;;;;;;17.30;45.80;;;;;;1569736;75;715;-76
2024/01/25 10:53:22;;;;;;;;;;;17.20;45.70;;;;;;1557271;75;1367;-72
2024/01/25 10:55:25;;;;;;;;;;;17.30;45.80;;;;;;1564833;75;764;-77
2024/01/25 10:57:27;;;;;;;;;;;17.20;45.60;;;;;;1565220;75;631;-75
2024/01/25 10:59:29;;;;;;;;;;;17.20;45.60;;;;;;1568278;75;1137;-77
2024/01/25 11:01:31;;;;;;;;;;;17.20;45.60;;;;;;1563007;75;663;-77
2024/01/25 11:03:34;;;;;;;;;;;17.20;45.60;;;;;;1566739;75;1923;-76
2024/01/25 11:05:36;;;;;;;;;;;17.20;45.60;;;;;;1559891;75;834;-77
2024/01/25 11:07:50;;;;;;;;;;;17.30;45.70;;;;;;1557237;75;785;-77
2024/01/25 11:09:52;;;;;;;;;;;17.30;45.70;;;;;;1557937;74;1198;-77
2024/01/25 11:11:54;;;;;;;;;;;17.20;45.70;;;;;;1562434;75;618;-77
2024/01/25 11:13:57;;;;;;;;;;;17.30;45.70;;;;;;1568062;75;518;-73
2024/01/25 11:15:59;;;;;;;;;;;17.20;45.60;;;;;;1565277;75;704;-77
2024/01/25 11:18:01;;;;;;;;;;;17.30;45.70;;;;;;1565911;75;570;-74
2024/01/25 11:20:03;;;;;;;;;;;17.20;45.60;;;;;;1564775;74;1219;-74
2024/01/25 11:22:05;;;;;;;;;;;17.20;45.60;;;;;;1560300;75;672;-78
2024/01/25 11:24:09;;;;;;;;;;;17.20;45.60;;;;;;1563879;75;1911;-72
2024/01/25 11:26:11;;;;;;;;;;;17.30;45.70;;;;;;1557376;75;864;-77
2024/01/25 11:28:14;;;;;;;;;;;17.20;45.60;;;;;;1560985;75;1153;-77
2024/01/25 11:30:17;;;;;;;;;;;17.30;45.70;;;;;;1565967;75;849;-77
2024/01/25 11:32:19;;;;;;;;;;;17.30;45.70;;;;;;1568886;75;734;-73
2024/01/25 11:34:21;;;;;;;;;;;17.30;45.70;;;;;;1554443;75;714;-77
2024/01/25 11:36:23;;;;;;;;;;;17.20;45.50;;;;;;1562582;75;736;-76
2024/01/25 11:38:25;;;;;;;;;;;17.30;45.70;;;;;;1539500;76;1224;-76
2024/01/25 11:40:31;;;;;;;;;;;17.20;45.50;;;;;;1556643;75;658;-75
2024/01/25 11:42:31;;;;;;;;;;;17.30;45.70;;;;;;1565854;74;1276;-77
2024/01/25 11:44:32;;;;;;;;;;;17.30;45.70;;;;;;1558254;75;1938;-77
2024/01/25 11:46:34;;;;;;;;;;;17.30;45.70;;;;;;1567911;75;735;-76
2024/01/25 11:48:38;;;;;;;;;;;17.30;45.70;;;;;;1564360;75;1137;-74
2024/01/25 11:50:40;;;;;;;;;;;17.20;45.50;;;;;;1562491;74;1524;-76
2024/01/25 11:52:42;;;;;;;;;;;17.20;45.50;;;;;;1563457;75;676;-74
2024/01/25 11:54:43;;;;;;;;;;;17.30;45.70;;;;;;1568308;75;691;-75
2024/01/25 11:56:45;;;;;;;;;;;17.30;45.70;;;;;;1558281;75;689;-77
2024/01/25 11:58:47;;;;;;;;;;;17.30;45.70;;;;;;1569509;75;1244;-73
2024/01/25 12:00:49;;;;;;;;;;;17.20;45.60;;;;;;1556644;75;701;-76
2024/01/25 12:02:51;;;;;;;;;;;17.20;45.50;;;;;;1561713;75;743;-71
2024/01/25 12:04:55;;;;;;;;;;;17.30;45.60;;;;;;1560661;75;1944;-78
2024/01/25 12:06:56;;;;;;;;;;;17.30;45.70;;;;;;1568021;75;1153;-76
2024/01/25 12:09:00;;;;;;;;;;;17.30;45.60;;;;;;1561459;75;1133;-75